Time,TemperatureF,DewpointF,PressureIn,WindDirection,WindDirectionDegrees,WindSpeedMPH,WindSpeedGustMPH,Humidity,HourlyPrecipIn,Conditions,Clouds,dailyrainin,SolarRadiationWatts/m^2,SoftwareType,DateUTC
2013-03-16 00:00:00,19.4,16.2,29.98,ENE,63,1.1,1.1,87,0.01,-SN,,0.00,0.0,WeatherDisplay:10.37,2013-03-16 05:00:00,
2013-03-16 00:05:00,19.3,16.1,29.99,NE,53,1.1,1.1,87,0.01,-SN,,0.00,0.0,WeatherDisplay:10.37,2013-03-16 05:05:00,
2013-03-16 00:10:00,19.1,15.6,29.99,ENE,73,1.1,0.0,86,0.01,-SN,,0.00,0.0,WeatherDisplay:10.37,2013-03-16 05:10:00,
2013-03-16 00:15:00,19.0,15.5,29.99,East,80,3.0,3.0,86,0.01,-SN,,0.00,0.0,WeatherDisplay:10.37,2013-03-16 05:15:00,
2013-03-16 00:20:00,18.9,15.4,29.98,ENE,66,1.1,1.1,86,0.01,-SN,,0.00,0.0,WeatherDisplay:10.37,2013-03-16 05:20:00,
2013-03-16 00:25:00,18.6,15.1,29.98,East,86,1.1,1.1,86,0.01,-SN,,0.00,0.0,WeatherDisplay:10.37,2013-03-16 05:25:00,
2013-03-16 00:30:00,18.4,15.2,29.98,East,86,2.3,2.3,87,0.01,-SN,,0.00,0.0,WeatherDisplay:10.37,2013-03-16 05:30:00,
2013-03-16 00:35:00,18.2,15.0,29.98,ENE,65,5.8,5.8,87,0.01,-SN,,0.01,0.0,WeatherDisplay:10.37,2013-03-16 05:35:00,
2013-03-16 00:40:00,18.0,14.8,29.98,ENE,65,0.0,0.0,87,0.01,-SN,,0.01,0.0,WeatherDisplay:10.37,2013-03-16 05:40:00,
2013-03-16 00:45:00,17.9,14.7,29.99,East,82,3.5,3.5,87,0.01,-SN,,0.01,0.0,WeatherDisplay:10.37,2013-03-16 05:45:00,
2013-03-16 00:50:00,17.8,14.6,29.98,East,86,2.3,2.3,87,0.01,-SN,,0.01,0.0,WeatherDisplay:10.37,2013-03-16 05:50:00,
2013-03-16 00:55:00,17.6,14.4,29.98,ENE,74,1.1,1.1,87,0.01,-SN,,0.01,0.0,WeatherDisplay:10.37,2013-03-16 05:55:00,
2013-03-16 01:00:00,17.6,14.7,29.99,ENE,75,3.5,3.5,88,0.01,-SN,,0.01,0.0,WeatherDisplay:10.37,2013-03-16 06:00:00,
2013-03-16 01:05:00,17.5,14.6,29.99,East,93,3.5,3.5,88,0.02,-SN,,0.02,0.0,WeatherDisplay:10.37,2013-03-16 06:05:00,
2013-03-16 01:10:00,17.5,14.6,29.99,East,93,0.0,0.1,88,0.02,-SN,,0.02,0.0,WeatherDisplay:10.37,2013-03-16 06:10:00,
2013-03-16 01:15:00,17.4,14.5,29.99,ENE,74,3.5,3.5,88,0.02,-SN,,0.02,0.0,WeatherDisplay:10.37,2013-03-16 06:15:00,
2013-03-16 01:20:00,17.3,14.4,29.99,NE,55,0.0,0.0,88,0.02,-SN,,0.02,0.0,WeatherDisplay:10.37,2013-03-16 06:20:00,
2013-03-16 01:25:00,17.2,14.3,29.99,East,82,2.3,2.3,88,0.02,-SN,,0.02,0.0,WeatherDisplay:10.37,2013-03-16 06:25:00,
2013-03-16 01:30:00,17.1,14.2,29.99,East,89,0.0,0.0,88,0.02,-SN,,0.02,0.0,WeatherDisplay:10.37,2013-03-16 06:30:00,
2013-03-16 01:35:00,17.0,14.1,29.99,ENE,59,1.1,0.0,88,0.01,-SN,,0.02,0.0,WeatherDisplay:10.37,2013-03-16 06:35:00,
2013-03-16 01:40:00,16.9,14.0,30.00,ENE,64,2.3,2.3,88,0.02,-SN,,0.03,0.0,WeatherDisplay:10.37,2013-03-16 06:40:00,
2013-03-16 01:45:00,17.0,14.1,30.00,ENE,64,0.0,0.0,88,0.02,-SN,,0.03,0.0,WeatherDisplay:10.37,2013-03-16 06:45:00,
2013-03-16 01:50:00,17.0,14.1,30.00,ENE,69,2.0,2.0,88,0.02,-SN,,0.03,0.0,WeatherDisplay:10.37,2013-03-16 06:50:00,
2013-03-16 01:55:00,17.0,14.1,30.00,ENE,69,0.0,0.2,88,0.03,-SN,,0.04,0.0,WeatherDisplay:10.37,2013-03-16 06:55:00,
2013-03-16 02:00:00,16.9,14.0,30.00,ENE,71,1.1,0.0,88,0.03,-SN,,0.04,0.0,WeatherDisplay:10.37,2013-03-16 07:00:00,
2013-03-16 02:05:00,16.7,13.8,30.00,ENE,74,2.3,2.3,88,0.02,-SN,,0.04,0.0,WeatherDisplay:10.37,2013-03-16 07:05:00,
2013-03-16 02:10:00,16.6,13.7,30.01,East,90,3.5,0.0,88,0.02,-SN,,0.04,0.0,WeatherDisplay:10.37,2013-03-16 07:10:00,
2013-03-16 02:15:00,16.4,13.5,30.01,ENE,71,3.5,3.5,88,0.02,-SN,,0.04,0.0,WeatherDisplay:10.37,2013-03-16 07:15:00,
2013-03-16 02:20:00,16.3,13.4,30.01,ENE,63,2.3,2.3,88,0.02,-SN,,0.05,0.0,WeatherDisplay:10.37,2013-03-16 07:20:00,
2013-03-16 02:25:00,16.2,13.3,30.01,ENE,64,0.0,0.1,88,0.03,-SN,,0.05,0.0,WeatherDisplay:10.37,2013-03-16 07:25:00,
2013-03-16 02:30:00,16.2,13.3,30.01,ENE,64,0.0,0.0,88,0.03,-SN,,0.05,0.0,WeatherDisplay:10.37,2013-03-16 07:30:00,
2013-03-16 02:35:00,16.2,13.3,30.01,ENE,64,0.0,0.0,88,0.03,-SN,,0.05,0.0,WeatherDisplay:10.37,2013-03-16 07:35:00,
2013-03-16 02:40:00,16.3,13.4,30.01,ENE,64,0.0,0.0,88,0.03,-SN,,0.06,0.0,WeatherDisplay:10.37,2013-03-16 07:40:00,
2013-03-16 02:45:00,16.3,13.4,30.01,ENE,63,2.3,2.3,88,0.03,-SN,,0.06,0.0,WeatherDisplay:10.37,2013-03-16 07:45:00,
2013-03-16 02:50:00,16.2,13.0,30.01,East,85,1.1,0.0,87,0.03,-SN,,0.06,0.0,WeatherDisplay:10.37,2013-03-16 07:50:00,
2013-03-16 02:55:00,16.1,12.9,30.01,East,84,0.0,0.0,87,0.02,-SN,,0.06,0.0,WeatherDisplay:10.37,2013-03-16 07:55:00,
2013-03-16 03:00:00,16.0,12.8,30.01,East,84,1.1,0.0,87,0.02,-SN,,0.06,0.0,WeatherDisplay:10.37,2013-03-16 08:00:00,
2013-03-16 03:05:00,15.9,12.7,30.01,ENE,75,0.0,0.0,87,0.02,-SN,,0.06,0.0,WeatherDisplay:10.37,2013-03-16 08:05:00,
2013-03-16 03:10:00,15.8,12.6,30.01,East,86,1.1,0.0,87,0.02,-SN,,0.06,0.0,WeatherDisplay:10.37,2013-03-16 08:10:00,
2013-03-16 03:15:00,15.8,12.6,30.01,East,82,0.0,0.0,87,0.02,-SN,,0.06,0.0,WeatherDisplay:10.37,2013-03-16 08:15:00,
2013-03-16 03:20:00,15.7,12.8,30.01,ENE,76,1.1,0.0,88,0.02,-SN,,0.07,0.0,WeatherDisplay:10.37,2013-03-16 08:20:00,
2013-03-16 03:25:00,15.5,12.3,30.01,East,94,5.0,5.0,87,0.02,-SN,,0.07,0.0,WeatherDisplay:10.37,2013-03-16 08:25:00,
2013-03-16 03:30:00,15.4,12.2,30.01,ENE,78,0.0,0.0,87,0.02,-SN,,0.07,0.0,WeatherDisplay:10.37,2013-03-16 08:30:00,
2013-03-16 03:35:00,15.4,12.5,30.02,East,84,0.0,0.0,88,0.02,-SN,,0.07,0.0,WeatherDisplay:10.37,2013-03-16 08:35:00,
2013-03-16 03:41:00,15.4,12.5,30.02,ENE,76,2.3,2.3,88,0.01,-SN,,0.07,0.0,WeatherDisplay:10.37,2013-03-16 08:41:00,
2013-03-16 03:45:00,15.5,12.6,30.02,ENE,72,1.1,1.1,88,0.01,-SN,,0.07,0.0,WeatherDisplay:10.37,2013-03-16 08:45:00,
2013-03-16 03:51:00,15.5,12.3,30.02,ENE,77,2.3,0.0,87,0.01,-SN,,0.07,0.0,WeatherDisplay:10.37,2013-03-16 08:51:00,
2013-03-16 03:56:00,15.5,12.3,30.02,SE,134,2.3,2.3,87,0.01,-SN,,0.07,0.0,WeatherDisplay:10.37,2013-03-16 08:56:00,
2013-03-16 04:01:00,15.5,12.3,30.02,ENE,78,2.3,2.3,87,0.01,-SN,,0.07,0.0,WeatherDisplay:10.37,2013-03-16 09:01:00,
2013-03-16 04:06:00,15.4,12.2,30.02,ENE,78,1.1,0.0,87,0.01,-SN,,0.07,0.0,WeatherDisplay:10.37,2013-03-16 09:06:00,
2013-03-16 04:11:00,15.3,11.9,30.03,ENE,78,1.1,0.0,86,0.01,-SN,,0.07,0.0,WeatherDisplay:10.37,2013-03-16 09:11:00,
2013-03-16 04:16:00,15.2,11.8,30.03,ENE,74,0.0,0.0,86,0.01,-SN,,0.07,0.0,WeatherDisplay:10.37,2013-03-16 09:16:00,
2013-03-16 04:21:00,15.0,11.6,30.03,ENE,76,0.0,0.0,86,0.00,-SN,,0.07,0.0,WeatherDisplay:10.37,2013-03-16 09:21:00,
2013-03-16 04:26:00,14.9,11.5,30.02,East,91,1.0,0.0,86,0.00,-SN,,0.07,0.0,WeatherDisplay:10.37,2013-03-16 09:26:00,
2013-03-16 04:31:00,14.7,11.3,30.02,ENE,76,0.0,0.0,86,0.00,-SN,,0.07,0.0,WeatherDisplay:10.37,2013-03-16 09:31:00,
2013-03-16 04:36:00,14.7,11.5,30.02,ENE,74,2.3,0.0,87,0.00,-SN,,0.07,0.0,WeatherDisplay:10.37,2013-03-16 09:36:00,
2013-03-16 04:41:00,14.6,11.4,30.03,ENE,74,0.0,0.0,87,0.00,-SN,,0.07,0.0,WeatherDisplay:10.37,2013-03-16 09:41:00,
2013-03-16 04:46:00,14.6,11.4,30.03,ENE,74,0.0,0.0,87,0.00,-SN,,0.07,0.0,WeatherDisplay:10.37,2013-03-16 09:46:00,
2013-03-16 04:52:00,14.4,11.0,30.03,ENE,75,1.0,0.0,86,0.00,-SN,,0.07,0.0,WeatherDisplay:10.37,2013-03-16 09:52:00,
2013-03-16 04:57:00,14.4,11.2,30.03,ENE,75,0.0,0.0,87,0.00,-SN,,0.07,0.0,WeatherDisplay:10.37,2013-03-16 09:57:00,
2013-03-16 05:02:00,14.4,11.2,30.03,ENE,78,1.1,1.1,87,0.00,-SN,,0.07,0.0,WeatherDisplay:10.37,2013-03-16 10:02:00,
2013-03-16 05:07:00,14.5,11.3,30.04,East,79,0.0,0.0,87,0.00,-SN,,0.07,0.0,WeatherDisplay:10.37,2013-03-16 10:07:00,
2013-03-16 05:12:00,14.5,11.3,30.04,East,79,0.0,0.1,87,0.00,-SN,,0.07,0.0,WeatherDisplay:10.37,2013-03-16 10:12:00,
2013-03-16 05:17:00,14.5,11.1,30.04,East,79,0.0,0.0,86,0.00,-SN,,0.07,0.0,WeatherDisplay:10.37,2013-03-16 10:17:00,
2013-03-16 05:22:00,14.5,11.1,30.04,East,79,0.0,0.0,86,0.00,-SN,,0.07,0.0,WeatherDisplay:10.37,2013-03-16 10:22:00,
2013-03-16 05:27:00,14.7,11.3,30.04,ENE,78,0.0,0.0,86,0.00,-SN,,0.07,0.0,WeatherDisplay:10.37,2013-03-16 10:27:00,
2013-03-16 05:32:00,14.8,11.4,30.05,East,79,0.0,0.0,86,0.00,-SN,,0.07,0.0,WeatherDisplay:10.37,2013-03-16 10:32:00,
2013-03-16 05:37:00,14.9,11.5,30.05,ENE,78,0.0,0.0,86,0.00,-SN,,0.07,0.0,WeatherDisplay:10.37,2013-03-16 10:37:00,
2013-03-16 05:42:00,14.9,11.5,30.05,East,79,0.0,0.0,86,0.00,-SN,,0.07,0.0,WeatherDisplay:10.37,2013-03-16 10:42:00,
2013-03-16 05:47:00,14.9,11.2,30.05,East,82,1.1,1.1,85,0.00,-SN,,0.07,0.0,WeatherDisplay:10.37,2013-03-16 10:47:00,
2013-03-16 05:52:00,14.8,11.1,30.06,East,82,0.0,0.0,85,0.00,-SN,,0.07,0.0,WeatherDisplay:10.37,2013-03-16 10:52:00,
2013-03-16 05:57:00,14.6,10.9,30.06,East,82,0.0,0.0,85,0.00,-SN,,0.07,0.0,WeatherDisplay:10.37,2013-03-16 10:57:00,
2013-03-16 06:02:00,14.6,10.9,30.06,East,82,0.0,0.0,85,0.00,OVC,,0.07,0.0,WeatherDisplay:10.37,2013-03-16 11:02:00,
2013-03-16 06:07:00,14.6,10.9,30.06,East,82,0.0,0.0,85,0.00,OVC,,0.07,0.0,WeatherDisplay:10.37,2013-03-16 11:07:00,
2013-03-16 06:12:00,14.6,11.2,30.07,East,82,0.0,0.0,86,0.00,OVC,,0.07,0.0,WeatherDisplay:10.37,2013-03-16 11:12:00,
2013-03-16 06:17:00,14.6,10.9,30.07,ENE,73,1.1,0.0,85,0.00,OVC,,0.07,0.0,WeatherDisplay:10.37,2013-03-16 11:17:00,
2013-03-16 06:22:00,14.6,10.9,30.07,ENE,73,0.0,0.0,85,0.00,OVC,,0.07,0.0,WeatherDisplay:10.37,2013-03-16 11:22:00,
2013-03-16 06:28:00,14.6,10.9,30.07,ENE,73,0.0,0.0,85,0.00,OVC,,0.07,0.0,WeatherDisplay:10.37,2013-03-16 11:28:00,
2013-03-16 06:33:00,14.7,11.3,30.07,ENE,73,0.0,0.0,86,0.00,OVC,,0.07,0.0,WeatherDisplay:10.37,2013-03-16 11:33:00,
2013-03-16 06:38:00,14.6,10.9,30.08,ENE,73,0.0,0.0,85,0.00,OVC,,0.07,0.0,WeatherDisplay:10.37,2013-03-16 11:38:00,
2013-03-16 06:43:00,14.5,10.8,30.08,ENE,73,0.0,0.0,85,0.00,OVC,,0.07,0.0,WeatherDisplay:10.37,2013-03-16 11:43:00,
2013-03-16 06:48:00,14.5,10.8,30.08,ENE,73,0.0,0.0,85,0.00,OVC,,0.07,0.0,WeatherDisplay:10.37,2013-03-16 11:48:00,
2013-03-16 06:53:00,14.6,10.9,30.08,ENE,73,0.0,0.0,85,0.00,OVC,,0.07,0.0,WeatherDisplay:10.37,2013-03-16 11:53:00,
2013-03-16 06:58:00,14.7,11.0,30.08,ENE,73,0.0,0.0,85,0.00,OVC,,0.07,0.0,WeatherDisplay:10.37,2013-03-16 11:58:00,
2013-03-16 07:03:00,14.8,10.8,30.09,ENE,73,0.0,0.0,84,0.00,FEW,,0.07,0.0,WeatherDisplay:10.37,2013-03-16 12:03:00,
2013-03-16 07:08:00,14.7,10.5,30.09,ENE,73,0.0,0.0,83,0.00,FEW,,0.07,0.0,WeatherDisplay:10.37,2013-03-16 12:08:00,
2013-03-16 07:13:00,14.6,10.1,30.09,ENE,73,0.0,0.0,82,0.00,FEW,,0.07,0.0,WeatherDisplay:10.37,2013-03-16 12:13:00,
2013-03-16 07:18:00,14.1,9.3,30.09,ENE,73,0.0,0.0,81,0.00,FEW,,0.07,0.0,WeatherDisplay:10.37,2013-03-16 12:18:00,
2013-03-16 07:23:00,13.3,8.3,30.10,ENE,73,0.0,0.0,80,0.00,FEW,,0.07,0.0,WeatherDisplay:10.37,2013-03-16 12:23:00,
2013-03-16 07:28:00,12.3,7.3,30.10,ENE,73,0.0,0.0,80,0.00,FEW,,0.07,0.0,WeatherDisplay:10.37,2013-03-16 12:28:00,
2013-03-16 07:33:00,11.5,6.8,30.10,ENE,73,0.0,0.0,81,0.00,FEW,,0.07,0.0,WeatherDisplay:10.37,2013-03-16 12:33:00,
2013-03-16 07:38:00,10.7,6.0,30.10,ENE,73,0.0,0.0,81,0.00,FEW,,0.07,0.0,WeatherDisplay:10.37,2013-03-16 12:38:00,
2013-03-16 07:43:00,10.1,5.4,30.10,ENE,73,0.0,0.0,81,0.00,FEW,,0.07,0.0,WeatherDisplay:10.37,2013-03-16 12:43:00,
2013-03-16 07:48:00,9.5,5.1,30.11,ENE,73,0.0,0.0,82,0.00,FEW,,0.07,0.0,WeatherDisplay:10.37,2013-03-16 12:48:00,
2013-03-16 07:53:00,9.1,5.0,30.11,ENE,73,0.0,0.0,83,0.00,FEW,,0.07,0.0,WeatherDisplay:10.37,2013-03-16 12:53:00,
2013-03-16 07:58:00,9.0,5.1,30.11,ENE,73,0.0,0.0,84,0.00,FEW,,0.07,5.0,WeatherDisplay:10.37,2013-03-16 12:58:00,
2013-03-16 08:03:00,8.8,5.0,30.11,ENE,73,0.0,0.0,84,0.00,CLR,,0.07,5.0,WeatherDisplay:10.37,2013-03-16 13:03:00,
2013-03-16 08:08:00,8.9,5.3,30.12,ENE,73,0.0,0.0,85,0.00,CLR,,0.07,5.0,WeatherDisplay:10.37,2013-03-16 13:08:00,
2013-03-16 08:13:00,8.9,5.3,30.12,ENE,73,0.0,0.0,85,0.00,CLR,,0.07,7.0,WeatherDisplay:10.37,2013-03-16 13:13:00,
2013-03-16 08:18:00,8.9,5.3,30.12,ENE,73,0.0,0.0,85,0.00,CLR,,0.07,7.0,WeatherDisplay:10.37,2013-03-16 13:18:00,
2013-03-16 08:23:00,9.1,5.8,30.11,ENE,73,0.0,0.0,86,0.00,CLR,,0.07,7.0,WeatherDisplay:10.37,2013-03-16 13:23:00,
2013-03-16 08:28:00,9.6,6.5,30.12,ENE,64,0.0,0.0,87,0.00,CLR,,0.07,9.0,WeatherDisplay:10.37,2013-03-16 13:28:00,
2013-03-16 08:33:00,10.1,7.0,30.12,ENE,64,0.0,0.0,87,0.00,CLR,,0.07,11.0,WeatherDisplay:10.37,2013-03-16 13:33:00,
2013-03-16 08:38:00,10.6,7.7,30.12,ENE,64,0.0,0.0,88,0.00,CLR,,0.07,11.0,WeatherDisplay:10.37,2013-03-16 13:38:00,
2013-03-16 08:43:00,11.5,8.6,30.12,ENE,64,0.0,0.0,88,0.00,CLR,,0.07,23.0,WeatherDisplay:10.37,2013-03-16 13:43:00,
2013-03-16 08:48:00,12.5,9.6,30.12,ENE,64,1.1,0.0,88,0.00,CLR,,0.07,18.0,WeatherDisplay:10.37,2013-03-16 13:48:00,
2013-03-16 08:53:00,13.2,9.8,30.12,ENE,61,0.0,0.0,86,0.00,CLR,,0.07,14.0,WeatherDisplay:10.37,2013-03-16 13:53:00,
2013-03-16 08:58:00,13.5,9.8,30.13,ENE,61,0.0,0.0,85,0.00,CLR,,0.07,14.0,WeatherDisplay:10.37,2013-03-16 13:58:00,
2013-03-16 09:03:00,13.8,10.1,30.13,ENE,61,0.0,0.0,85,0.00,BKN,,0.07,12.0,WeatherDisplay:10.37,2013-03-16 14:03:00,
2013-03-16 09:08:00,14.3,10.6,30.13,ENE,61,0.0,0.0,85,0.00,BKN,,0.07,16.0,WeatherDisplay:10.37,2013-03-16 14:08:00,
2013-03-16 09:13:00,14.8,11.1,30.13,ENE,61,0.0,0.0,85,0.00,BKN,,0.07,26.0,WeatherDisplay:10.37,2013-03-16 14:13:00,
2013-03-16 09:18:00,15.4,11.2,30.13,ENE,61,0.0,0.0,83,0.00,BKN,,0.07,35.0,WeatherDisplay:10.37,2013-03-16 14:18:00,
2013-03-16 09:23:00,15.8,11.0,30.14,NNW,327,0.0,0.0,81,0.00,BKN,,0.07,14.0,WeatherDisplay:10.37,2013-03-16 14:23:00,
2013-03-16 09:28:00,16.2,11.7,30.13,North,9,0.0,0.0,82,0.00,BKN,,0.07,18.0,WeatherDisplay:10.37,2013-03-16 14:28:00,
2013-03-16 09:33:00,16.4,11.6,30.13,North,9,0.0,0.0,81,0.00,BKN,,0.07,16.0,WeatherDisplay:10.37,2013-03-16 14:33:00,
2013-03-16 09:38:00,16.6,11.8,30.13,East,87,1.1,1.1,81,0.00,BKN,,0.07,14.0,WeatherDisplay:10.37,2013-03-16 14:38:00,
2013-03-16 09:43:00,16.7,11.6,30.13,East,87,0.0,0.0,80,0.00,BKN,,0.07,16.0,WeatherDisplay:10.37,2013-03-16 14:43:00,
2013-03-16 09:48:00,16.8,12.0,30.13,East,80,2.3,2.3,81,0.00,BKN,,0.07,16.0,WeatherDisplay:10.37,2013-03-16 14:48:00,
2013-03-16 09:54:00,17.2,12.4,30.13,East,84,1.1,1.1,81,0.00,BKN,,0.07,19.0,WeatherDisplay:10.37,2013-03-16 14:54:00,
2013-03-16 09:59:00,17.6,12.8,30.13,East,87,1.1,1.1,81,0.00,BKN,,0.07,35.0,WeatherDisplay:10.37,2013-03-16 14:59:00,
2013-03-16 10:04:00,18.1,13.3,30.12,East,80,3.5,3.5,81,0.00,BKN,,0.07,47.0,WeatherDisplay:10.37,2013-03-16 15:04:00,
2013-03-16 10:09:00,18.8,13.7,30.12,East,90,3.5,3.5,80,0.00,BKN,,0.07,39.0,WeatherDisplay:10.37,2013-03-16 15:09:00,
2013-03-16 10:14:00,19.2,13.8,30.12,SE,126,2.0,2.0,79,0.00,BKN,,0.07,39.0,WeatherDisplay:10.37,2013-03-16 15:14:00,
2013-03-16 10:19:00,19.5,14.0,30.12,East,80,1.1,1.1,79,0.00,OVC,,0.07,44.0,WeatherDisplay:10.37,2013-03-16 15:19:00,
2013-03-16 10:24:00,19.6,13.3,30.12,ENE,65,1.1,1.1,76,0.00,OVC,,0.07,51.0,WeatherDisplay:10.37,2013-03-16 15:24:00,
2013-03-16 10:29:00,19.7,13.1,30.12,East,101,2.3,2.3,75,0.00,OVC,,0.07,49.0,WeatherDisplay:10.37,2013-03-16 15:29:00,
2013-03-16 10:34:00,19.9,13.3,30.12,East,90,3.5,3.5,75,0.00,OVC,,0.07,53.0,WeatherDisplay:10.37,2013-03-16 15:34:00,
2013-03-16 10:39:00,20.1,13.7,30.12,ENE,78,1.1,1.1,76,0.00,OVC,,0.07,56.0,WeatherDisplay:10.37,2013-03-16 15:39:00,
2013-03-16 10:44:00,20.3,13.9,30.12,East,100,0.0,0.0,76,0.00,OVC,,0.07,42.0,WeatherDisplay:10.37,2013-03-16 15:44:00,
2013-03-16 10:49:00,20.2,12.0,30.12,WSW,252,2.3,0.0,70,0.00,OVC,,0.07,33.0,WeatherDisplay:10.37,2013-03-16 15:49:00,
2013-03-16 10:54:00,20.2,12.9,30.12,NE,40,2.3,2.3,73,0.00,OVC,,0.07,39.0,WeatherDisplay:10.37,2013-03-16 15:54:00,
2013-03-16 10:59:00,20.3,12.7,30.12,SE,143,1.1,0.0,72,0.00,OVC,,0.07,39.0,WeatherDisplay:10.37,2013-03-16 15:59:00,
2013-03-16 11:04:00,20.2,12.6,30.12,South,174,0.0,0.1,72,0.00,OVC,,0.07,30.0,WeatherDisplay:10.37,2013-03-16 16:04:00,
2013-03-16 11:09:00,20.1,12.5,30.12,ENE,58,1.1,1.1,72,0.00,OVC,,0.07,33.0,WeatherDisplay:10.37,2013-03-16 16:09:00,
2013-03-16 11:14:00,20.2,12.6,30.12,East,86,0.0,0.1,72,0.00,OVC,,0.07,44.0,WeatherDisplay:10.37,2013-03-16 16:14:00,
2013-03-16 11:19:00,20.3,11.4,30.12,SSW,207,3.5,3.5,68,0.00,OVC,,0.07,40.0,WeatherDisplay:10.37,2013-03-16 16:19:00,
2013-03-16 11:24:00,20.5,12.3,30.12,SSW,205,4.6,4.6,70,0.00,OVC,,0.07,39.0,WeatherDisplay:10.37,2013-03-16 16:24:00,
2013-03-16 11:29:00,20.9,13.6,30.12,WSW,248,0.0,0.0,73,0.00,OVC,,0.07,47.0,WeatherDisplay:10.37,2013-03-16 16:29:00,
2013-03-16 11:34:00,21.5,13.2,30.12,NE,51,2.3,2.3,70,0.00,OVC,,0.07,60.0,WeatherDisplay:10.37,2013-03-16 16:34:00,
2013-03-16 11:39:00,21.8,13.5,30.12,NE,55,1.1,1.1,70,0.00,OVC,,0.07,69.0,WeatherDisplay:10.37,2013-03-16 16:39:00,
2013-03-16 11:44:00,22.1,14.1,30.12,East,96,1.1,0.0,71,0.00,OVC,,0.07,35.0,WeatherDisplay:10.37,2013-03-16 16:44:00,
2013-03-16 11:49:00,23.0,14.7,30.12,WNW,286,2.3,2.3,70,0.00,OVC,,0.07,179.0,WeatherDisplay:10.37,2013-03-16 16:49:00,
2013-03-16 11:54:00,24.4,16.3,30.12,WSW,238,3.0,3.0,71,0.00,OVC,,0.07,70.0,WeatherDisplay:10.37,2013-03-16 16:54:00,
2013-03-16 11:59:00,25.1,15.3,30.13,SW,236,0.0,0.0,66,0.00,OVC,,0.07,98.0,WeatherDisplay:10.37,2013-03-16 16:59:00,
2013-03-16 12:04:00,26.0,15.8,30.13,NNE,17,3.0,3.0,65,0.00,OVC,,0.07,211.0,WeatherDisplay:10.37,2013-03-16 17:04:00,
2013-03-16 12:09:00,26.0,15.1,30.13,NE,34,3.5,3.5,63,0.00,OVC,,0.07,160.0,WeatherDisplay:10.37,2013-03-16 17:09:00,
2013-03-16 12:15:00,25.9,15.0,30.12,NNW,339,3.5,0.0,63,0.00,OVC,,0.07,199.0,WeatherDisplay:10.37,2013-03-16 17:15:00,
2013-03-16 12:20:00,26.3,15.8,30.12,WSW,253,3.5,3.5,64,0.00,OVC,,0.07,881.0,WeatherDisplay:10.37,2013-03-16 17:20:00,
2013-03-16 12:25:00,26.4,15.5,30.12,NE,40,2.3,2.3,63,0.00,OVC,,0.07,786.0,WeatherDisplay:10.37,2013-03-16 17:25:00,
2013-03-16 12:30:00,26.0,14.0,30.12,West,263,3.5,3.5,60,0.00,OVC,,0.07,246.0,WeatherDisplay:10.37,2013-03-16 17:30:00,
2013-03-16 12:35:00,25.4,14.5,30.12,West,263,3.5,3.5,63,0.00,OVC,,0.07,269.0,WeatherDisplay:10.37,2013-03-16 17:35:00,
2013-03-16 12:40:00,25.1,14.3,30.12,NNE,26,3.5,3.5,63,0.00,OVC,,0.07,276.0,WeatherDisplay:10.37,2013-03-16 17:40:00,
2013-03-16 12:45:00,25.0,14.2,30.12,NE,41,2.3,2.3,63,0.00,OVC,,0.07,302.0,WeatherDisplay:10.37,2013-03-16 17:45:00,
2013-03-16 12:50:00,24.7,13.9,30.12,NNE,31,4.6,4.6,63,0.00,OVC,,0.07,369.0,WeatherDisplay:10.37,2013-03-16 17:50:00,
2013-03-16 12:55:00,24.5,13.7,30.12,WNW,293,4.6,4.6,63,0.00,OVC,,0.07,272.0,WeatherDisplay:10.37,2013-03-16 17:55:00,
2013-03-16 13:00:00,24.4,13.6,30.12,SSW,213,4.6,4.6,63,0.00,OVC,,0.07,383.0,WeatherDisplay:10.37,2013-03-16 18:00:00,
2013-03-16 13:05:00,24.7,14.2,30.12,NE,34,3.5,3.5,64,0.00,OVC,,0.07,313.0,WeatherDisplay:10.37,2013-03-16 18:05:00,
2013-03-16 13:10:00,24.6,13.4,30.12,WSW,252,4.0,4.0,62,0.00,OVC,,0.07,345.0,WeatherDisplay:10.37,2013-03-16 18:10:00,
2013-03-16 13:15:00,24.6,14.5,30.12,West,271,2.0,2.0,65,0.00,OVC,,0.07,316.0,WeatherDisplay:10.37,2013-03-16 18:15:00,
2013-03-16 13:20:00,24.9,13.7,30.12,West,265,3.5,3.5,62,0.00,OVC,,0.07,313.0,WeatherDisplay:10.37,2013-03-16 18:20:00,
2013-03-16 13:25:00,25.3,14.8,30.12,WNW,302,4.0,4.0,64,0.00,OVC,,0.07,367.0,WeatherDisplay:10.37,2013-03-16 18:25:00,
2013-03-16 13:30:00,26.1,15.2,30.12,West,272,4.6,4.6,63,0.00,OVC,,0.07,376.0,WeatherDisplay:10.37,2013-03-16 18:30:00,
2013-03-16 13:35:00,26.3,14.7,30.12,SSW,193,3.5,3.5,61,0.00,OVC,,0.07,397.0,WeatherDisplay:10.37,2013-03-16 18:35:00,
2013-03-16 13:40:00,26.2,14.6,30.12,NNE,22,4.6,4.6,61,0.00,OVC,,0.07,301.0,WeatherDisplay:10.37,2013-03-16 18:40:00,
2013-03-16 13:45:00,26.3,14.7,30.12,ENE,61,5.8,5.8,61,0.00,OVC,,0.07,373.0,WeatherDisplay:10.37,2013-03-16 18:45:00,
2013-03-16 13:50:00,26.9,16.0,30.12,West,264,3.5,3.5,63,0.00,OVC,,0.07,341.0,WeatherDisplay:10.37,2013-03-16 18:50:00,
2013-03-16 13:55:00,26.8,14.8,30.12,NNE,20,4.6,4.6,60,0.00,OVC,,0.07,427.0,WeatherDisplay:10.37,2013-03-16 18:55:00,
2013-03-16 14:00:00,26.3,14.3,30.12,NNE,28,5.8,5.8,60,0.00,OVC,,0.07,332.0,WeatherDisplay:10.37,2013-03-16 19:00:00,
2013-03-16 14:05:00,25.9,14.3,30.12,NW,306,4.6,4.6,61,0.00,OVC,,0.07,257.0,WeatherDisplay:10.37,2013-03-16 19:05:00,
2013-03-16 14:10:00,25.7,14.8,30.11,SW,224,5.8,5.8,63,0.00,OVC,,0.07,262.0,WeatherDisplay:10.37,2013-03-16 19:10:00,
2013-03-16 14:15:00,25.4,13.8,30.12,WSW,253,3.5,3.5,61,0.00,OVC,,0.07,274.0,WeatherDisplay:10.37,2013-03-16 19:15:00,
2013-03-16 14:20:00,25.2,13.2,30.11,NNE,18,5.8,5.8,60,0.00,OVC,,0.07,401.0,WeatherDisplay:10.37,2013-03-16 19:20:00,
2013-03-16 14:25:00,25.1,13.9,30.12,West,268,6.9,6.9,62,0.00,OVC,,0.07,264.0,WeatherDisplay:10.37,2013-03-16 19:25:00,
2013-03-16 14:30:00,25.2,14.4,30.12,WSW,243,5.8,5.8,63,0.00,OVC,,0.07,265.0,WeatherDisplay:10.37,2013-03-16 19:30:00,
2013-03-16 14:35:00,25.1,14.3,30.11,South,180,5.0,5.0,63,0.00,OVC,,0.07,276.0,WeatherDisplay:10.37,2013-03-16 19:35:00,
2013-03-16 14:40:00,25.1,15.3,30.11,NW,304,3.5,3.5,66,0.00,OVC,,0.07,248.0,WeatherDisplay:10.37,2013-03-16 19:40:00,
2013-03-16 14:45:00,25.2,14.7,30.11,NNE,15,3.5,3.5,64,0.00,OVC,,0.07,258.0,WeatherDisplay:10.37,2013-03-16 19:45:00,
2013-03-16 14:50:00,25.3,15.5,30.11,West,259,8.1,8.1,66,0.00,OVC,,0.07,227.0,WeatherDisplay:10.37,2013-03-16 19:50:00,
2013-03-16 14:55:00,25.2,15.1,30.11,WSW,255,3.5,3.5,65,0.00,OVC,,0.07,308.0,WeatherDisplay:10.37,2013-03-16 19:55:00,
2013-03-16 15:00:00,25.4,15.3,30.10,WNW,287,4.6,4.6,65,0.00,OVC,,0.07,239.0,WeatherDisplay:10.37,2013-03-16 20:00:00,
2013-03-16 15:05:00,25.1,15.3,30.11,WSW,247,6.0,6.0,66,0.00,OVC,,0.07,185.0,WeatherDisplay:10.37,2013-03-16 20:05:00,
2013-03-16 15:10:00,25.1,15.0,30.10,WSW,244,9.2,9.2,65,0.00,OVC,,0.07,236.0,WeatherDisplay:10.37,2013-03-16 20:10:00,
2013-03-16 15:15:00,24.8,14.7,30.11,SW,223,2.3,2.3,65,0.00,OVC,,0.07,186.0,WeatherDisplay:10.37,2013-03-16 20:15:00,
2013-03-16 15:20:00,24.7,15.3,30.11,WSW,257,6.0,6.0,67,0.00,OVC,,0.07,190.0,WeatherDisplay:10.37,2013-03-16 20:20:00,
2013-03-16 15:25:00,24.6,14.5,30.10,SSW,197,10.4,10.4,65,0.00,OVC,,0.07,223.0,WeatherDisplay:10.37,2013-03-16 20:25:00,
2013-03-16 15:30:00,24.7,14.9,30.10,SSW,192,6.9,6.9,66,0.00,OVC,,0.07,237.0,WeatherDisplay:10.37,2013-03-16 20:30:00,
2013-03-16 15:35:00,24.7,15.3,30.10,SW,234,3.5,3.5,67,0.00,OVC,,0.07,167.0,WeatherDisplay:10.37,2013-03-16 20:35:00,
2013-03-16 15:40:00,24.5,14.4,30.10,SW,234,9.2,9.2,65,0.00,OVC,,0.07,172.0,WeatherDisplay:10.37,2013-03-16 20:40:00,
2013-03-16 15:45:00,24.2,14.1,30.10,WSW,248,7.0,7.0,65,0.00,OVC,,0.07,165.0,WeatherDisplay:10.37,2013-03-16 20:45:00,
2013-03-16 15:50:00,24.4,15.0,30.10,WSW,254,2.3,2.3,67,0.00,OVC,,0.07,165.0,WeatherDisplay:10.37,2013-03-16 20:50:00,
2013-03-16 15:55:00,24.7,14.9,30.11,SW,230,2.3,2.3,66,0.00,OVC,,0.07,130.0,WeatherDisplay:10.37,2013-03-16 20:55:00,
2013-03-16 16:00:00,24.5,14.1,30.11,WSW,239,6.9,6.9,64,0.00,OVC,,0.07,121.0,WeatherDisplay:10.37,2013-03-16 21:00:00,
2013-03-16 16:05:00,24.5,15.1,30.10,WSW,238,5.8,5.8,67,0.00,OVC,,0.07,158.0,WeatherDisplay:10.37,2013-03-16 21:05:00,
2013-03-16 16:10:00,25.2,15.4,30.10,WNW,286,8.0,8.0,66,0.00,OVC,,0.07,694.0,WeatherDisplay:10.37,2013-03-16 21:10:00,
2013-03-16 16:15:00,25.7,14.8,30.10,West,263,8.1,8.1,63,0.00,OVC,,0.07,185.0,WeatherDisplay:10.37,2013-03-16 21:15:00,
2013-03-16 16:20:00,25.9,15.0,30.10,SSW,211,3.5,3.5,63,0.00,OVC,,0.07,264.0,WeatherDisplay:10.37,2013-03-16 21:20:00,
2013-03-16 16:25:00,26.1,14.5,30.10,West,275,5.8,5.8,61,0.00,OVC,,0.07,236.0,WeatherDisplay:10.37,2013-03-16 21:25:00,
2013-03-16 16:30:00,26.0,13.6,30.10,SSW,200,3.5,3.5,59,0.00,OVC,,0.07,239.0,WeatherDisplay:10.37,2013-03-16 21:30:00,
2013-03-16 16:35:00,26.0,14.4,30.10,West,272,4.6,4.6,61,0.00,OVC,,0.07,195.0,WeatherDisplay:10.37,2013-03-16 21:35:00,
2013-03-16 16:40:00,25.8,13.4,30.10,WNW,286,11.5,11.5,59,0.00,OVC,,0.07,109.0,WeatherDisplay:10.37,2013-03-16 21:40:00,
2013-03-16 16:45:00,25.4,13.4,30.10,West,273,5.8,5.8,60,0.00,OVC,,0.07,253.0,WeatherDisplay:10.37,2013-03-16 21:45:00,
2013-03-16 16:50:00,26.6,14.9,30.10,West,277,3.5,3.5,61,0.00,OVC,,0.07,522.0,WeatherDisplay:10.37,2013-03-16 21:50:00,
2013-03-16 16:55:00,27.7,13.6,30.09,SW,226,5.8,5.8,55,0.00,OVC,,0.07,454.0,WeatherDisplay:10.37,2013-03-16 21:55:00,
2013-03-16 17:00:00,27.2,13.6,30.09,West,262,6.9,6.9,56,0.00,OVC,,0.07,69.0,WeatherDisplay:10.37,2013-03-16 22:00:00,
2013-03-16 17:05:00,26.5,13.3,30.09,SW,221,8.0,8.0,57,0.00,OVC,,0.07,236.0,WeatherDisplay:10.37,2013-03-16 22:05:00,
2013-03-16 17:10:00,26.7,13.5,30.09,NW,317,4.6,4.6,57,0.00,OVC,,0.07,441.0,WeatherDisplay:10.37,2013-03-16 22:10:00,
2013-03-16 17:15:00,27.5,14.2,30.09,West,262,3.5,3.5,57,0.00,OVC,,0.07,371.0,WeatherDisplay:10.37,2013-03-16 22:15:00,
2013-03-16 17:20:00,27.7,12.3,30.09,WSW,251,9.2,9.2,52,0.00,BKN,,0.07,297.0,WeatherDisplay:10.37,2013-03-16 22:20:00,
2013-03-16 17:25:00,27.4,12.5,30.09,SW,230,9.2,9.2,53,0.00,BKN,,0.07,352.0,WeatherDisplay:10.37,2013-03-16 22:25:00,
2013-03-16 17:30:00,27.0,12.5,30.09,WSW,243,2.0,2.0,54,0.00,BKN,,0.07,255.0,WeatherDisplay:10.37,2013-03-16 22:30:00,
2013-03-16 17:35:00,27.0,13.0,30.08,WSW,257,2.3,2.3,55,0.00,BKN,,0.07,267.0,WeatherDisplay:10.37,2013-03-16 22:35:00,
2013-03-16 17:40:00,26.6,11.3,30.09,SW,232,11.5,11.5,52,0.00,BKN,,0.07,192.0,WeatherDisplay:10.37,2013-03-16 22:40:00,
2013-03-16 17:45:00,25.7,11.3,30.09,West,269,5.8,5.8,54,0.00,BKN,,0.07,60.0,WeatherDisplay:10.37,2013-03-16 22:45:00,
2013-03-16 17:50:00,25.3,11.8,30.09,WNW,297,3.5,3.5,56,0.00,BKN,,0.07,120.0,WeatherDisplay:10.37,2013-03-16 22:50:00,
2013-03-16 17:55:00,25.3,12.2,30.08,NNW,342,3.0,3.0,57,0.00,BKN,,0.07,118.0,WeatherDisplay:10.37,2013-03-16 22:55:00,
2013-03-16 18:00:00,25.2,12.5,30.09,WNW,282,3.5,3.5,58,0.00,BKN,,0.07,42.0,WeatherDisplay:10.37,2013-03-16 23:00:00,
2013-03-16 18:05:00,25.0,11.5,30.09,North,355,4.6,4.6,56,0.00,BKN,,0.07,33.0,WeatherDisplay:10.37,2013-03-16 23:05:00,
2013-03-16 18:10:00,24.6,10.7,30.09,West,269,3.5,3.5,55,0.00,BKN,,0.07,35.0,WeatherDisplay:10.37,2013-03-16 23:10:00,
2013-03-16 18:15:00,24.3,10.4,30.09,WSW,239,3.5,3.5,55,0.00,BKN,,0.07,32.0,WeatherDisplay:10.37,2013-03-16 23:15:00,
2013-03-16 18:20:00,23.9,10.1,30.09,WNW,296,9.2,9.2,55,0.00,CLR,,0.07,25.0,WeatherDisplay:10.37,2013-03-16 23:20:00,
2013-03-16 18:25:00,23.6,10.2,30.09,West,264,2.3,2.3,56,0.00,CLR,,0.07,23.0,WeatherDisplay:10.37,2013-03-16 23:25:00,
2013-03-16 18:30:00,23.3,9.9,30.09,NNE,32,3.5,3.5,56,0.00,CLR,,0.07,21.0,WeatherDisplay:10.37,2013-03-16 23:30:00,
2013-03-16 18:35:00,23.1,10.1,30.09,West,271,2.3,2.3,57,0.00,CLR,,0.07,18.0,WeatherDisplay:10.37,2013-03-16 23:35:00,
2013-03-16 18:40:00,22.8,10.6,30.09,WSW,244,2.0,2.0,59,0.00,CLR,,0.07,16.0,WeatherDisplay:10.37,2013-03-16 23:40:00,
2013-03-16 18:45:00,22.5,10.3,30.10,NNW,342,3.5,3.5,59,0.00,CLR,,0.07,12.0,WeatherDisplay:10.37,2013-03-16 23:45:00,
2013-03-16 18:50:00,22.3,9.0,30.10,WNW,289,2.3,2.3,56,0.00,CLR,,0.07,11.0,WeatherDisplay:10.37,2013-03-16 23:50:00,
2013-03-16 18:55:00,22.1,9.2,30.10,NNE,20,5.0,5.0,57,0.00,CLR,,0.07,7.0,WeatherDisplay:10.37,2013-03-16 23:55:00,
2013-03-16 19:00:00,21.8,9.7,30.11,NNE,17,2.3,2.3,59,0.00,CLR,,0.07,5.0,WeatherDisplay:10.37,2013-03-17 00:00:00,
2013-03-16 19:05:00,21.6,9.5,30.11,NNE,17,3.5,3.5,59,0.00,CLR,,0.07,0.0,WeatherDisplay:10.37,2013-03-17 00:05:00,
2013-03-16 19:10:00,21.4,9.7,30.11,NW,309,1.1,1.9,60,0.00,CLR,,0.07,0.0,WeatherDisplay:10.37,2013-03-17 00:10:00,
2013-03-16 19:15:00,21.2,8.7,30.11,North,9,3.5,3.5,58,0.00,CLR,,0.07,0.0,WeatherDisplay:10.37,2013-03-17 00:15:00,
2013-03-16 19:20:00,21.0,8.9,30.11,NNW,332,6.9,6.9,59,0.00,CLR,,0.07,0.0,WeatherDisplay:10.37,2013-03-17 00:20:00,
2013-03-16 19:26:00,20.7,8.6,30.12,West,279,3.5,3.5,59,0.00,CLR,,0.07,0.0,WeatherDisplay:10.37,2013-03-17 00:26:00,
2013-03-16 19:31:00,20.5,8.8,30.12,West,264,1.1,1.1,60,0.00,CLR,,0.07,0.0,WeatherDisplay:10.37,2013-03-17 00:31:00,
2013-03-16 19:36:00,20.2,8.9,30.13,SW,232,1.1,1.1,61,0.00,CLR,,0.07,0.0,WeatherDisplay:10.37,2013-03-17 00:36:00,
2013-03-16 19:41:00,20.0,8.7,30.13,West,259,2.3,2.3,61,0.00,CLR,,0.07,0.0,WeatherDisplay:10.37,2013-03-17 00:41:00,
2013-03-16 19:46:00,19.9,8.6,30.14,WNW,302,3.5,3.5,61,0.00,CLR,,0.07,0.0,WeatherDisplay:10.37,2013-03-17 00:46:00,
2013-03-16 19:51:00,19.7,9.1,30.14,West,271,0.0,0.0,63,0.00,CLR,,0.07,0.0,WeatherDisplay:10.37,2013-03-17 00:51:00,
2013-03-16 19:56:00,19.4,9.2,30.15,NW,325,1.1,1.1,64,0.00,CLR,,0.07,0.0,WeatherDisplay:10.37,2013-03-17 00:56:00,
2013-03-16 20:01:00,19.0,8.5,30.15,SW,232,2.3,2.3,63,0.00,FEW,,0.07,0.0,WeatherDisplay:10.37,2013-03-17 01:01:00,
2013-03-16 20:06:00,18.9,8.7,30.15,West,275,1.1,1.1,64,0.00,FEW,,0.07,0.0,WeatherDisplay:10.37,2013-03-17 01:06:00,
2013-03-16 20:11:00,18.8,8.6,30.16,SE,133,1.1,1.1,64,0.00,FEW,,0.07,0.0,WeatherDisplay:10.37,2013-03-17 01:11:00,
2013-03-16 20:16:00,18.7,8.5,30.16,SSW,213,0.0,0.0,64,0.00,FEW,,0.07,0.0,WeatherDisplay:10.37,2013-03-17 01:16:00,
2013-03-16 20:21:00,18.6,8.4,30.17,SW,221,0.0,0.0,64,0.00,FEW,,0.07,0.0,WeatherDisplay:10.37,2013-03-17 01:21:00,
2013-03-16 20:26:00,18.4,9.3,30.17,SW,221,1.0,1.0,67,0.00,FEW,,0.07,0.0,WeatherDisplay:10.37,2013-03-17 01:26:00,
2013-03-16 20:31:00,18.0,8.5,30.17,NW,319,0.0,0.3,66,0.00,FEW,,0.07,0.0,WeatherDisplay:10.37,2013-03-17 01:31:00,
2013-03-16 20:37:00,17.8,8.7,30.18,NW,304,1.0,0.0,67,0.00,FEW,,0.07,0.0,WeatherDisplay:10.37,2013-03-17 01:37:00,
2013-03-16 20:42:00,17.5,8.4,30.18,West,265,3.5,3.5,67,0.00,FEW,,0.07,0.0,WeatherDisplay:10.37,2013-03-17 01:42:00,
2013-03-16 20:47:00,17.4,8.3,30.18,West,264,1.0,0.0,67,0.00,FEW,,0.07,0.0,WeatherDisplay:10.37,2013-03-17 01:47:00,
2013-03-16 20:52:00,17.4,8.0,30.19,West,281,3.5,3.5,66,0.00,FEW,,0.07,0.0,WeatherDisplay:10.37,2013-03-17 01:52:00,
2013-03-16 20:57:00,17.4,8.3,30.19,NNE,16,4.0,4.0,67,0.00,FEW,,0.07,0.0,WeatherDisplay:10.37,2013-03-17 01:57:00,
2013-03-16 21:02:00,17.4,8.3,30.19,West,275,2.3,2.3,67,0.00,FEW,,0.07,0.0,WeatherDisplay:10.37,2013-03-17 02:02:00,
2013-03-16 21:07:00,17.4,8.3,30.20,NNW,327,0.0,0.0,67,0.00,FEW,,0.07,0.0,WeatherDisplay:10.37,2013-03-17 02:07:00,
2013-03-16 21:12:00,17.5,8.1,30.20,NE,39,1.1,0.0,66,0.00,FEW,,0.07,0.0,WeatherDisplay:10.37,2013-03-17 02:12:00,
2013-03-16 21:17:00,17.5,8.4,30.20,NNE,19,2.3,2.3,67,0.00,SCT,,0.07,0.0,WeatherDisplay:10.37,2013-03-17 02:17:00,
2013-03-16 21:22:00,17.5,8.1,30.21,West,269,1.1,1.1,66,0.00,SCT,,0.07,0.0,WeatherDisplay:10.37,2013-03-17 02:22:00,
2013-03-16 21:27:00,17.3,7.5,30.21,WNW,288,2.3,2.3,65,0.00,SCT,,0.07,0.0,WeatherDisplay:10.37,2013-03-17 02:27:00,
2013-03-16 21:32:00,17.1,7.3,30.21,NW,307,3.5,0.0,65,0.00,SCT,,0.07,0.0,WeatherDisplay:10.37,2013-03-17 02:32:00,
2013-03-16 21:37:00,17.0,6.9,30.21,NE,49,3.5,3.5,64,0.00,SCT,,0.07,0.0,WeatherDisplay:10.37,2013-03-17 02:37:00,
2013-03-16 21:42:00,16.8,7.1,30.21,North,5,1.1,0.0,65,0.00,SCT,,0.07,0.0,WeatherDisplay:10.37,2013-03-17 02:42:00,
2013-03-16 21:48:00,16.7,6.6,30.22,WSW,241,3.5,0.0,64,0.00,SCT,,0.07,0.0,WeatherDisplay:10.37,2013-03-17 02:48:00,
2013-03-16 21:53:00,16.6,6.5,30.22,NNW,348,2.3,2.3,64,0.00,SCT,,0.07,0.0,WeatherDisplay:10.37,2013-03-17 02:53:00,
2013-03-16 21:58:00,16.4,6.3,30.22,WSW,257,2.0,0.0,64,0.00,SCT,,0.07,0.0,WeatherDisplay:10.37,2013-03-17 02:58:00,
2013-03-16 22:03:00,16.1,6.4,30.22,NNW,336,0.0,0.0,65,0.00,CLR,,0.07,0.0,WeatherDisplay:10.37,2013-03-17 03:03:00,
2013-03-16 22:08:00,15.8,6.1,30.22,NNW,336,0.0,0.0,65,0.00,CLR,,0.07,0.0,WeatherDisplay:10.37,2013-03-17 03:08:00,
2013-03-16 22:13:00,15.4,6.1,30.22,WNW,283,0.0,0.0,66,0.00,CLR,,0.07,0.0,WeatherDisplay:10.37,2013-03-17 03:13:00,
2013-03-16 22:18:00,15.2,6.2,30.23,WNW,284,1.1,1.1,67,0.00,CLR,,0.07,0.0,WeatherDisplay:10.37,2013-03-17 03:18:00,
2013-03-16 22:23:00,14.8,5.5,30.23,WNW,300,1.1,1.1,66,0.00,CLR,,0.07,0.0,WeatherDisplay:10.37,2013-03-17 03:23:00,
2013-03-16 22:28:00,14.7,5.7,30.23,WNW,300,0.0,0.0,67,0.00,CLR,,0.07,0.0,WeatherDisplay:10.37,2013-03-17 03:28:00,
2013-03-16 22:33:00,14.5,5.5,30.23,WNW,300,0.0,0.0,67,0.00,CLR,,0.07,0.0,WeatherDisplay:10.37,2013-03-17 03:33:00,
2013-03-16 22:38:00,14.3,5.3,30.23,NNW,342,1.1,0.0,67,0.00,CLR,,0.07,0.0,WeatherDisplay:10.37,2013-03-17 03:38:00,
2013-03-16 22:43:00,14.2,5.6,30.23,NNW,342,1.1,0.0,68,0.00,CLR,,0.07,0.0,WeatherDisplay:10.37,2013-03-17 03:43:00,
2013-03-16 22:48:00,14.0,5.7,30.24,NNW,342,1.1,1.1,69,0.00,CLR,,0.07,0.0,WeatherDisplay:10.37,2013-03-17 03:48:00,
2013-03-16 22:53:00,13.8,5.2,30.24,North,360,0.0,0.0,68,0.00,CLR,,0.07,0.0,WeatherDisplay:10.37,2013-03-17 03:53:00,
2013-03-16 22:58:00,13.7,5.1,30.24,West,263,1.1,0.0,68,0.00,CLR,,0.07,0.0,WeatherDisplay:10.37,2013-03-17 03:58:00,
2013-03-16 23:00:00,13.7,5.1,30.24,West,263,0.0,0.0,68,0.00,CLR,,0.07,0.0,WeatherDisplay:10.37,2013-03-17 04:00:00,
2013-03-16 23:05:00,13.7,5.1,30.24,West,266,1.1,1.1,68,0.00,CLR,,0.07,0.0,WeatherDisplay:10.37,2013-03-17 04:05:00,
2013-03-16 23:10:00,13.6,5.0,30.24,West,268,0.0,0.0,68,0.00,CLR,,0.07,0.0,WeatherDisplay:10.37,2013-03-17 04:10:00,
2013-03-16 23:15:00,13.4,4.8,30.24,West,275,1.1,0.0,68,0.00,CLR,,0.07,0.0,WeatherDisplay:10.37,2013-03-17 04:15:00,
2013-03-16 23:20:00,13.2,4.6,30.25,NNE,13,0.0,0.3,68,0.00,CLR,,0.07,0.0,WeatherDisplay:10.37,2013-03-17 04:20:00,
2013-03-16 23:25:00,13.0,4.4,30.25,WSW,253,3.5,3.5,68,0.00,CLR,,0.07,0.0,WeatherDisplay:10.37,2013-03-17 04:25:00,
2013-03-16 23:30:00,12.7,4.4,30.25,WSW,253,0.0,0.0,69,0.00,CLR,,0.07,0.0,WeatherDisplay:10.37,2013-03-17 04:30:00,
2013-03-16 23:35:00,12.5,4.3,30.25,WSW,254,0.0,0.1,69,0.00,CLR,,0.07,0.0,WeatherDisplay:10.37,2013-03-17 04:35:00,
2013-03-16 23:40:00,12.3,4.1,30.25,WNW,302,1.1,1.1,69,0.00,CLR,,0.07,0.0,WeatherDisplay:10.37,2013-03-17 04:40:00,
2013-03-16 23:45:00,12.1,4.2,30.26,WNW,302,0.0,0.0,70,0.00,CLR,,0.07,0.0,WeatherDisplay:10.37,2013-03-17 04:45:00,
2013-03-16 23:50:00,11.8,3.9,30.26,WNW,302,0.0,0.0,70,0.00,CLR,,0.07,0.0,WeatherDisplay:10.37,2013-03-17 04:50:00,
2013-03-16 23:55:00,11.6,3.7,30.26,WNW,291,0.0,0.0,70,0.00,CLR,,0.07,0.0,WeatherDisplay:10.37,2013-03-17 04:55:00,